Terminal Aerodrome Forecast
Issued by NWS Sioux Falls, SD

Home | Current Version | Previous Version | Text Only | Print | Product List | Glossary On
Versions: 1 2 3 4 5 6 7 8 9 10 11 12
000
FTUS43 KFSD 251722
TAFSUX
TAF
KSUX 251722Z 2518/2618 17022G26KT P6SM SCT250
     FM252200 16015G23KT P6SM BKN100
     FM260900 VRB03KT P6SM BKN040
     FM261300 32005KT P6SM BKN060
     FM261400 32008KT P6SM SCT090=

USA.gov is the U.S. government's official web portal to all federal, state and local government web resources and services.